X  Sluiten METAR luchtvaart weer gegevens      KDNN Dalton Municipal Airport
Temperatuur
46°F Temperatuur
28°F Dauwpunt
50% Vochtigheid



Wind
6 MPH
10 KM/U
3 M/S
5 KTS



Kalm
N
Huidig weer

Wat bewolking Wat bewolking
Luchtdruk 1026.72 (hPa) - 30.32 (inHg)
Zicht 10 (mijl) - 16.1 (km)
Vliegveld
Vliegveld code KDNN

Locatie : Dalton Municipal Airport
Afstand: 34 (mi)

Metar:
KDNN 051615Z AUTO VRB05KT 10SM FEW043 08/M02 A3032 RMK AO2 T00811023

Tijd: 02-05-2023 11:15 EST